Time;durP1;ratioP1;P1;durP2;ratioP2;P2;SDS_P1;SDS_P2;PMS_P1;PMS_P2;Temp;Humidity;BMP_temperature;BMP_pressure;BME280_temperature;BME280_humidity;BME280_pressure;Samples;Min_cycle;Max_cycle;Signal;HPM_P1;HPM_P2
2023/11/01 00:01:20;;;;;;;5.85;1.20;;;;;;;;;;5050471;28;20025;-76
2023/11/01 00:03:45;;;;;;;5.68;1.30;;;;;;;;;;5047491;28;20025;-77
2023/11/01 00:06:11;;;;;;;5.80;1.50;;;;;;;;;;5046696;28;20021;-77
2023/11/01 00:08:36;;;;;;;4.30;1.80;;;;;;;;;;5052942;28;20025;-77
2023/11/01 00:11:01;;;;;;;3.35;1.20;;;;;;;;;;5052254;28;20065;-77
2023/11/01 00:13:26;;;;;;;4.35;1.65;;;;;;;;;;5048233;28;20041;-76
2023/11/01 00:15:52;;;;;;;6.78;1.77;;;;;;;;;;5053062;28;20032;-77
2023/11/01 00:18:17;;;;;;;8.40;1.35;;;;;;;;;;5050609;28;20060;-77
2023/11/01 00:20:42;;;;;;;3.50;1.20;;;;;;;;;;5046503;28;20461;-77
2023/11/01 00:23:07;;;;;;;3.97;1.40;;;;;;;;;;5052501;28;20528;-77
2023/11/01 00:25:35;;;;;;;2.17;1.25;;;;;;;;;;5050261;28;20036;-78
2023/11/01 00:28:00;;;;;;;2.55;1.30;;;;;;;;;;5047734;28;20043;-76
2023/11/01 00:30:26;;;;;;;6.70;1.38;;;;;;;;;;5045986;28;20033;-77
2023/11/01 00:32:51;;;;;;;5.57;1.10;;;;;;;;;;5049882;28;20028;-77
2023/11/01 00:35:16;;;;;;;2.85;1.20;;;;;;;;;;5046689;28;20032;-77
2023/11/01 00:37:41;;;;;;;3.05;1.27;;;;;;;;;;5052309;28;20044;-78
2023/11/01 00:40:07;;;;;;;4.43;1.42;;;;;;;;;;5046629;28;20029;-78
2023/11/01 00:42:32;;;;;;;3.72;1.27;;;;;;;;;;5047259;28;20037;-77
2023/11/01 00:44:58;;;;;;;3.97;1.08;;;;;;;;;;5046652;28;20032;-77
2023/11/01 00:47:23;;;;;;;5.40;1.40;;;;;;;;;;5044524;28;20435;-77
2023/11/01 00:49:48;;;;;;;3.55;1.38;;;;;;;;;;5051497;28;20025;-77
2023/11/01 00:52:14;;;;;;;4.50;1.50;;;;;;;;;;5051318;28;20032;-77
2023/11/01 00:54:39;;;;;;;5.22;1.33;;;;;;;;;;5047440;28;20052;-78
2023/11/01 00:57:04;;;;;;;5.40;1.60;;;;;;;;;;5051031;28;20044;-78
2023/11/01 00:59:30;;;;;;;4.63;1.10;;;;;;;;;;5046130;28;20464;-77
2023/11/01 01:01:55;;;;;;;2.85;1.30;;;;;;;;;;5047154;28;20409;-77
2023/11/01 01:04:20;;;;;;;6.18;1.27;;;;;;;;;;5045822;28;20021;-78
2023/11/01 01:06:45;;;;;;;5.82;1.27;;;;;;;;;;5050718;28;20032;-77
2023/11/01 01:09:12;;;;;;;5.15;1.10;;;;;;;;;;5046603;28;20036;-78
2023/11/01 01:11:37;;;;;;;3.42;1.00;;;;;;;;;;5047882;28;20460;-77
2023/11/01 01:14:02;;;;;;;5.22;1.60;;;;;;;;;;5045269;28;20060;-77
2023/11/01 01:16:28;;;;;;;5.20;1.35;;;;;;;;;;5049940;28;20041;-78
2023/11/01 01:18:53;;;;;;;6.07;1.83;;;;;;;;;;5052342;28;20082;-77
2023/11/01 01:21:18;;;;;;;4.43;1.30;;;;;;;;;;5048007;28;20037;-78
2023/11/01 01:23:43;;;;;;;4.93;1.48;;;;;;;;;;5051274;28;20032;-78
2023/11/01 01:26:08;;;;;;;3.20;1.13;;;;;;;;;;5049111;28;20037;-78
2023/11/01 01:28:34;;;;;;;5.43;1.65;;;;;;;;;;5050699;28;20033;-78
2023/11/01 01:30:59;;;;;;;3.35;1.25;;;;;;;;;;5051231;28;20032;-77
2023/11/01 01:33:24;;;;;;;4.70;1.27;;;;;;;;;;5048866;28;20029;-77
2023/11/01 01:35:49;;;;;;;3.47;1.20;;;;;;;;;;5048790;28;20040;-78
2023/11/01 01:38:15;;;;;;;2.60;1.23;;;;;;;;;;5048951;28;20116;-78
2023/11/01 01:40:40;;;;;;;4.40;1.60;;;;;;;;;;5046206;28;20025;-77
2023/11/01 01:43:18;;;;;;;6.75;1.58;;;;;;;;;;5048422;28;20494;-78
2023/11/01 01:45:44;;;;;;;7.63;1.40;;;;;;;;;;5051437;28;20029;-77
2023/11/01 01:48:09;;;;;;;6.25;1.90;;;;;;;;;;5050171;28;20167;-77
2023/11/01 01:50:34;;;;;;;3.70;1.58;;;;;;;;;;5047930;28;20041;-77
2023/11/01 01:53:00;;;;;;;5.78;1.40;;;;;;;;;;5050663;28;20527;-78
2023/11/01 01:55:25;;;;;;;5.00;1.73;;;;;;;;;;5044206;28;20117;-77
2023/11/01 01:57:50;;;;;;;4.70;1.77;;;;;;;;;;5047508;28;20043;-78
2023/11/01 02:00:16;;;;;;;5.68;1.60;;;;;;;;;;5052373;28;20036;-77
2023/11/01 02:02:42;;;;;;;5.68;2.08;;;;;;;;;;5054304;28;20536;-78
2023/11/01 02:05:08;;;;;;;5.85;2.28;;;;;;;;;;5052536;28;20056;-77
2023/11/01 02:07:33;;;;;;;4.45;1.40;;;;;;;;;;5053695;28;20027;-77
2023/11/01 02:10:00;;;;;;;4.20;1.77;;;;;;;;;;5053172;28;20056;-78
2023/11/01 02:12:25;;;;;;;4.15;1.65;;;;;;;;;;5048248;28;20021;-78
2023/11/01 02:14:50;;;;;;;5.47;1.58;;;;;;;;;;5053289;28;20055;-78
2023/11/01 02:17:16;;;;;;;5.18;2.05;;;;;;;;;;5051955;28;20025;-78
2023/11/01 02:19:41;;;;;;;4.90;2.00;;;;;;;;;;5048565;28;20037;-78
2023/11/01 02:22:06;;;;;;;3.65;1.70;;;;;;;;;;5048591;28;20114;-78
2023/11/01 02:24:32;;;;;;;5.40;2.22;;;;;;;;;;5058804;28;20081;-78
2023/11/01 02:26:57;;;;;;;5.20;2.50;;;;;;;;;;5049158;28;20094;-77
2023/11/01 02:29:22;;;;;;;3.83;1.90;;;;;;;;;;5052089;28;20025;-78
2023/11/01 02:31:47;;;;;;;4.78;1.83;;;;;;;;;;5051112;28;20094;-77
2023/11/01 02:34:13;;;;;;;4.07;2.15;;;;;;;;;;5051028;28;20041;-77
2023/11/01 02:36:38;;;;;;;5.63;1.90;;;;;;;;;;5047747;28;20025;-77
2023/11/01 02:39:03;;;;;;;4.68;1.80;;;;;;;;;;5044808;28;20032;-78
2023/11/01 02:41:28;;;;;;;4.13;2.00;;;;;;;;;;5045601;28;20055;-77
2023/11/01 02:43:54;;;;;;;5.43;2.03;;;;;;;;;;5053111;28;20515;-78
2023/11/01 02:46:19;;;;;;;5.47;2.97;;;;;;;;;;5050475;28;20078;-77
2023/11/01 02:48:44;;;;;;;4.38;2.10;;;;;;;;;;5047825;28;20044;-77
2023/11/01 02:51:09;;;;;;;4.55;1.92;;;;;;;;;;5047634;28;20512;-77
2023/11/01 02:53:34;;;;;;;5.45;2.05;;;;;;;;;;5052359;28;20030;-78
2023/11/01 02:56:00;;;;;;;4.75;2.20;;;;;;;;;;5053332;28;20079;-77
2023/11/01 02:58:25;;;;;;;5.28;2.03;;;;;;;;;;5046204;28;20041;-78
2023/11/01 03:00:50;;;;;;;4.85;1.80;;;;;;;;;;5061468;28;20047;-77
2023/11/01 03:03:15;;;;;;;5.97;1.83;;;;;;;;;;5050082;28;20037;-77
2023/11/01 03:05:41;;;;;;;8.00;1.60;;;;;;;;;;5053237;28;20024;-77
2023/11/01 03:08:06;;;;;;;4.13;1.17;;;;;;;;;;5046679;28;20043;-77
2023/11/01 03:10:31;;;;;;;4.78;1.20;;;;;;;;;;5051999;28;20041;-77
2023/11/01 03:12:56;;;;;;;5.40;1.40;;;;;;;;;;5051758;28;20028;-77
2023/11/01 03:15:22;;;;;;;4.90;1.33;;;;;;;;;;5045265;28;20136;-77
2023/11/01 03:17:47;;;;;;;6.38;1.60;;;;;;;;;;5053254;28;20033;-76
2023/11/01 03:20:13;;;;;;;3.88;1.15;;;;;;;;;;5044030;28;20034;-77
2023/11/01 03:22:38;;;;;;;4.00;1.20;;;;;;;;;;5052990;28;20025;-78
2023/11/01 03:25:04;;;;;;;4.82;1.40;;;;;;;;;;5053946;28;20070;-76
2023/11/01 03:27:29;;;;;;;3.50;1.08;;;;;;;;;;5050144;28;20473;-76
2023/11/01 03:29:54;;;;;;;3.47;1.23;;;;;;;;;;5053459;28;20492;-77
2023/11/01 03:32:21;;;;;;;3.45;1.10;;;;;;;;;;5044649;28;20036;-77
2023/11/01 03:34:47;;;;;;;3.78;0.93;;;;;;;;;;5046208;28;20028;-77
2023/11/01 03:37:12;;;;;;;3.08;1.30;;;;;;;;;;5044691;28;20432;-78
2023/11/01 03:39:37;;;;;;;3.85;1.13;;;;;;;;;;5050246;28;20464;-77
2023/11/01 03:42:04;;;;;;;3.38;1.15;;;;;;;;;;5051639;28;20036;-77
2023/11/01 03:44:32;;;;;;;2.47;1.10;;;;;;;;;;5045767;28;20087;-78
2023/11/01 03:46:58;;;;;;;5.22;1.20;;;;;;;;;;5050932;28;20086;-78
2023/11/01 03:49:29;;;;;;;4.68;1.05;;;;;;;;;;5042709;28;20029;-77
2023/11/01 03:51:58;;;;;;;2.80;1.10;;;;;;;;;;5052070;28;20140;-77
2023/11/01 03:54:23;;;;;;;3.30;1.23;;;;;;;;;;5048477;28;20530;-78
2023/11/01 03:56:49;;;;;;;1.98;0.95;;;;;;;;;;5049213;28;20056;-77
2023/11/01 03:59:14;;;;;;;3.88;0.93;;;;;;;;;;5047987;28;20029;-77
2023/11/01 04:01:39;;;;;;;2.15;1.00;;;;;;;;;;5044737;28;20044;-78
2023/11/01 04:04:05;;;;;;;3.00;1.25;;;;;;;;;;5043008;28;20025;-78
2023/11/01 04:06:30;;;;;;;6.20;3.13;;;;;;;;;;5047304;28;20428;-77
2023/11/01 04:08:55;;;;;;;5.90;1.35;;;;;;;;;;5052727;28;20075;-77
2023/11/01 04:11:20;;;;;;;5.50;1.58;;;;;;;;;;5045621;28;20537;-78
2023/11/01 04:13:45;;;;;;;4.80;1.40;;;;;;;;;;5047880;28;20033;-77
2023/11/01 04:16:11;;;;;;;2.75;1.10;;;;;;;;;;5046451;28;20033;-77
2023/11/01 04:18:36;;;;;;;5.15;1.77;;;;;;;;;;5046074;28;20307;-77
2023/11/01 04:21:01;;;;;;;13.18;8.25;;;;;;;;;;5051580;28;20025;-77
2023/11/01 04:23:27;;;;;;;5.55;2.72;;;;;;;;;;5049073;28;20401;-77
2023/11/01 04:25:52;;;;;;;4.28;1.60;;;;;;;;;;5047121;28;20029;-76
2023/11/01 04:28:17;;;;;;;3.88;1.20;;;;;;;;;;5043145;28;20056;-77
2023/11/01 04:30:43;;;;;;;4.68;1.75;;;;;;;;;;5045885;28;20033;-76
2023/11/01 04:33:10;;;;;;;3.20;1.58;;;;;;;;;;5044370;28;20048;-77
2023/11/01 04:35:35;;;;;;;4.53;1.58;;;;;;;;;;5050711;28;20080;-77
2023/11/01 04:38:01;;;;;;;4.10;1.50;;;;;;;;;;5049858;28;20033;-77
2023/11/01 04:40:26;;;;;;;3.42;1.60;;;;;;;;;;5045588;28;20041;-77
2023/11/01 04:42:51;;;;;;;5.30;1.98;;;;;;;;;;5049686;28;20055;-77
2023/11/01 04:45:17;;;;;;;4.70;1.60;;;;;;;;;;5045441;28;20027;-78
2023/11/01 04:47:46;;;;;;;3.95;1.65;;;;;;;;;;5049790;28;20025;-77
2023/11/01 04:50:12;;;;;;;3.80;1.67;;;;;;;;;;5050259;28;20576;-77
2023/11/01 04:52:38;;;;;;;3.97;1.52;;;;;;;;;;5048550;28;20025;-77
2023/11/01 04:55:07;;;;;;;4.60;1.75;;;;;;;;;;5045772;28;20075;-79
2023/11/01 04:57:32;;;;;;;3.33;1.30;;;;;;;;;;5047901;28;20024;-77
2023/11/01 04:59:57;;;;;;;6.20;1.80;;;;;;;;;;5041889;28;20524;-78
2023/11/01 05:02:23;;;;;;;3.85;1.75;;;;;;;;;;5050346;28;20095;-78
2023/11/01 05:04:48;;;;;;;3.45;1.50;;;;;;;;;;5051114;28;20029;-78
2023/11/01 05:07:13;;;;;;;2.30;1.17;;;;;;;;;;5049214;28;20455;-78
2023/11/01 05:09:39;;;;;;;4.32;1.33;;;;;;;;;;5048555;28;20021;-78
2023/11/01 05:12:04;;;;;;;3.65;1.10;;;;;;;;;;5042870;28;20489;-77
2023/11/01 05:14:29;;;;;;;2.92;1.02;;;;;;;;;;5049058;28;20477;-78
2023/11/01 05:16:55;;;;;;;2.63;0.90;;;;;;;;;;5051770;28;20108;-78
2023/11/01 05:19:20;;;;;;;4.53;1.23;;;;;;;;;;5051228;28;20047;-77
2023/11/01 05:21:46;;;;;;;3.85;1.05;;;;;;;;;;5051580;28;20025;-77
2023/11/01 05:24:11;;;;;;;2.67;1.20;;;;;;;;;;5044112;28;20539;-79
2023/11/01 05:26:36;;;;;;;2.53;1.20;;;;;;;;;;5045393;28;20053;-77
2023/11/01 05:29:02;;;;;;;4.10;1.50;;;;;;;;;;5050449;28;20033;-77
2023/11/01 05:31:28;;;;;;;3.50;1.48;;;;;;;;;;5052327;28;20041;-78
2023/11/01 05:33:53;;;;;;;4.32;1.70;;;;;;;;;;5052383;28;20036;-77
2023/11/01 05:36:19;;;;;;;4.95;2.15;;;;;;;;;;5049404;28;20033;-77
2023/11/01 05:38:44;;;;;;;3.20;1.55;;;;;;;;;;5052728;28;20039;-77
2023/11/01 05:41:09;;;;;;;3.35;1.42;;;;;;;;;;5052037;28;20086;-78
2023/11/01 05:43:36;;;;;;;2.92;1.50;;;;;;;;;;5053912;28;20030;-78
2023/11/01 05:46:01;;;;;;;3.00;1.40;;;;;;;;;;5053834;28;20051;-78
2023/11/01 05:48:26;;;;;;;3.60;1.20;;;;;;;;;;5049325;28;20034;-77
2023/11/01 05:50:52;;;;;;;3.65;1.10;;;;;;;;;;5048952;28;20039;-78
2023/11/01 05:53:17;;;;;;;4.35;0.95;;;;;;;;;;5045111;28;20037;-78
2023/11/01 05:55:43;;;;;;;4.00;1.20;;;;;;;;;;5047007;28;20021;-77
2023/11/01 05:58:08;;;;;;;3.85;1.23;;;;;;;;;;5054089;28;20484;-77
2023/11/01 06:00:34;;;;;;;3.85;1.10;;;;;;;;;;5051734;28;20033;-76
2023/11/01 06:02:59;;;;;;;2.05;1.00;;;;;;;;;;5052317;28;20030;-77
2023/11/01 06:05:24;;;;;;;2.65;0.80;;;;;;;;;;5050138;28;20398;-76
2023/11/01 06:07:50;;;;;;;1.98;0.93;;;;;;;;;;5049661;28;20108;-78
2023/11/01 06:10:15;;;;;;;3.00;1.13;;;;;;;;;;5054458;28;20037;-77
2023/11/01 06:12:40;;;;;;;4.15;1.13;;;;;;;;;;5051852;28;20493;-77
2023/11/01 06:15:05;;;;;;;2.25;1.15;;;;;;;;;;5051695;28;20043;-77
2023/11/01 06:17:31;;;;;;;1.75;0.88;;;;;;;;;;5050688;28;20037;-78
2023/11/01 06:19:56;;;;;;;3.47;1.23;;;;;;;;;;5053616;28;20058;-77
2023/11/01 06:22:21;;;;;;;3.28;1.35;;;;;;;;;;5048086;28;20040;-77
2023/11/01 06:24:46;;;;;;;4.07;1.45;;;;;;;;;;5052071;28;20029;-77
2023/11/01 06:27:12;;;;;;;4.20;1.40;;;;;;;;;;5051258;28;20032;-77
2023/11/01 06:29:37;;;;;;;2.58;1.13;;;;;;;;;;5048393;28;20034;-77
2023/11/01 06:32:03;;;;;;;5.63;1.75;;;;;;;;;;5048088;28;20064;-77
2023/11/01 06:34:28;;;;;;;3.22;1.35;;;;;;;;;;5051908;28;20037;-76
2023/11/01 06:36:53;;;;;;;2.85;1.13;;;;;;;;;;5055045;28;20028;-77
2023/11/01 06:39:19;;;;;;;2.90;1.10;;;;;;;;;;5053801;28;20025;-76
2023/11/01 06:41:44;;;;;;;4.18;1.55;;;;;;;;;;5051286;28;20489;-77
2023/11/01 06:44:09;;;;;;;2.75;1.15;;;;;;;;;;5050690;28;20025;-77
2023/11/01 06:46:34;;;;;;;4.30;2.28;;;;;;;;;;5052823;28;20036;-76
2023/11/01 06:49:00;;;;;;;6.57;1.88;;;;;;;;;;5046603;28;20171;-76
2023/11/01 06:51:25;;;;;;;2.85;1.08;;;;;;;;;;5051141;28;20546;-77
2023/11/01 06:53:51;;;;;;;2.97;0.85;;;;;;;;;;5053647;28;20037;-77
2023/11/01 06:56:16;;;;;;;2.45;1.27;;;;;;;;;;5052722;28;20036;-77
2023/11/01 06:58:43;;;;;;;2.72;1.30;;;;;;;;;;5049303;28;20037;-77
2023/11/01 07:01:09;;;;;;;3.80;1.52;;;;;;;;;;5047677;28;20041;-77
2023/11/01 07:03:34;;;;;;;3.65;1.40;;;;;;;;;;5050530;28;20029;-77
2023/11/01 07:06:00;;;;;;;4.28;1.83;;;;;;;;;;5038844;28;20020;-77
2023/11/01 07:08:25;;;;;;;3.35;1.73;;;;;;;;;;5051676;28;20029;-78
2023/11/01 07:10:50;;;;;;;5.03;1.65;;;;;;;;;;5051680;28;20577;-77
2023/11/01 07:13:15;;;;;;;5.40;1.42;;;;;;;;;;5048482;28;20432;-76
2023/11/01 07:15:41;;;;;;;3.40;1.27;;;;;;;;;;5047307;28;20033;-77
2023/11/01 07:18:07;;;;;;;3.30;1.38;;;;;;;;;;5054359;28;20041;-77
2023/11/01 07:20:32;;;;;;;3.92;1.40;;;;;;;;;;5051670;28;20029;-77
2023/11/01 07:22:57;;;;;;;2.47;1.00;;;;;;;;;;5052207;28;20047;-76
2023/11/01 07:25:23;;;;;;;3.88;1.38;;;;;;;;;;5053698;28;20081;-77
2023/11/01 07:27:48;;;;;;;3.20;1.13;;;;;;;;;;5073895;23;20060;-79
2023/11/01 07:30:13;;;;;;;5.15;1.30;;;;;;;;;;5052667;28;20499;-80
2023/11/01 07:32:38;;;;;;;5.38;1.45;;;;;;;;;;5052385;28;20033;-80
2023/11/01 07:35:04;;;;;;;3.75;1.30;;;;;;;;;;5052326;28;20120;-80
2023/11/01 07:37:29;;;;;;;4.63;1.10;;;;;;;;;;5052171;28;20112;-80
2023/11/01 07:39:54;;;;;;;2.95;0.98;;;;;;;;;;5031383;28;20068;-80
2023/11/01 07:42:20;;;;;;;3.30;1.40;;;;;;;;;;5024043;28;20026;-80
2023/11/01 07:44:45;;;;;;;2.53;1.17;;;;;;;;;;5024441;28;20484;-80
2023/11/01 07:47:10;;;;;;;3.95;1.33;;;;;;;;;;5031914;28;20036;-80
2023/11/01 07:49:35;;;;;;;2.40;1.00;;;;;;;;;;5030961;28;20026;-80
2023/11/01 07:52:00;;;;;;;4.07;1.27;;;;;;;;;;5029060;28;20025;-79
2023/11/01 07:54:26;;;;;;;1.92;0.82;;;;;;;;;;5024417;28;20478;-79
2023/11/01 07:56:51;;;;;;;3.88;1.00;;;;;;;;;;5024674;28;20025;-80
2023/11/01 07:59:16;;;;;;;3.95;1.60;;;;;;;;;;5026518;28;20036;-80
2023/11/01 08:01:42;;;;;;;5.50;1.15;;;;;;;;;;5028086;28;20112;-80
2023/11/01 08:04:08;;;;;;;3.90;1.63;;;;;;;;;;5028671;28;20037;-80
2023/11/01 08:06:33;;;;;;;4.55;1.20;;;;;;;;;;5023106;28;20402;-80
2023/11/01 08:08:58;;;;;;;4.40;1.10;;;;;;;;;;5027593;28;20076;-80
2023/11/01 08:11:24;;;;;;;4.35;1.20;;;;;;;;;;5025064;28;20064;-80
2023/11/01 08:13:49;;;;;;;4.13;1.38;;;;;;;;;;5030402;28;20045;-80
2023/11/01 08:16:14;;;;;;;4.53;1.50;;;;;;;;;;5024186;28;20030;-80
2023/11/01 08:18:40;;;;;;;7.05;2.03;;;;;;;;;;5024185;28;20025;-80
2023/11/01 08:21:05;;;;;;;4.40;1.70;;;;;;;;;;5029142;28;20036;-80
2023/11/01 08:23:30;;;;;;;5.30;0.95;;;;;;;;;;5023232;28;20029;-80
2023/11/01 08:25:55;;;;;;;5.63;1.35;;;;;;;;;;5023906;28;20036;-80
2023/11/01 08:28:21;;;;;;;5.05;1.35;;;;;;;;;;5025589;28;20040;-80
2023/11/01 08:30:46;;;;;;;4.07;1.10;;;;;;;;;;5029980;28;20021;-80
2023/11/01 08:33:11;;;;;;;4.20;1.35;;;;;;;;;;5027068;28;20045;-80
2023/11/01 08:35:36;;;;;;;4.03;1.13;;;;;;;;;;5025348;28;20034;-80
2023/11/01 08:38:03;;;;;;;3.72;0.80;;;;;;;;;;5023590;28;20049;-80
2023/11/01 08:40:28;;;;;;;3.65;1.00;;;;;;;;;;5019314;28;20037;-80
2023/11/01 08:42:53;;;;;;;4.28;0.93;;;;;;;;;;5024216;28;20027;-80
2023/11/01 08:45:18;;;;;;;5.05;1.20;;;;;;;;;;5028227;28;20379;-80
2023/11/01 08:47:44;;;;;;;3.67;1.25;;;;;;;;;;5026685;28;20033;-78
2023/11/01 08:50:13;;;;;;;4.20;0.98;;;;;;;;;;5024252;28;20076;-78
2023/11/01 08:52:39;;;;;;;6.32;1.25;;;;;;;;;;5021665;28;20466;-78
2023/11/01 08:55:05;;;;;;;3.03;0.85;;;;;;;;;;5023484;28;20041;-78
2023/11/01 08:57:31;;;;;;;6.95;2.00;;;;;;;;;;5029047;28;20047;-78
2023/11/01 08:59:57;;;;;;;9.30;2.17;;;;;;;;;;5029641;28;20100;-80
2023/11/01 09:02:23;;;;;;;6.05;1.30;;;;;;;;;;5027509;28;20021;-78
2023/11/01 09:04:48;;;;;;;4.63;1.95;;;;;;;;;;5038096;28;20021;-78
2023/11/01 09:07:13;;;;;;;3.50;1.27;;;;;;;;;;5031929;28;20512;-78
2023/11/01 09:09:39;;;;;;;3.40;1.20;;;;;;;;;;5029121;28;20100;-78
2023/11/01 09:12:04;;;;;;;4.80;1.40;;;;;;;;;;5024162;28;20049;-78
2023/11/01 09:14:29;;;;;;;3.88;1.25;;;;;;;;;;5030531;28;20030;-78
2023/11/01 09:16:55;;;;;;;5.88;0.93;;;;;;;;;;5030805;28;20044;-78
2023/11/01 09:19:20;;;;;;;1.63;0.73;;;;;;;;;;5026961;28;20033;-78
2023/11/01 09:21:45;;;;;;;0.93;0.40;;;;;;;;;;5026803;28;20060;-78
2023/11/01 09:24:11;;;;;;;2.30;0.80;;;;;;;;;;5028088;28;20116;-78
2023/11/01 09:26:36;;;;;;;1.17;0.52;;;;;;;;;;5029436;28;20117;-78
2023/11/01 09:29:01;;;;;;;2.55;0.50;;;;;;;;;;5031479;28;20116;-78
2023/11/01 09:31:26;;;;;;;1.23;0.50;;;;;;;;;;5025309;28;20030;-78
2023/11/01 09:33:52;;;;;;;3.67;0.57;;;;;;;;;;5026780;28;20036;-78
2023/11/01 09:36:17;;;;;;;1.98;0.85;;;;;;;;;;5024852;28;20034;-78
2023/11/01 09:38:42;;;;;;;1.20;0.60;;;;;;;;;;5032701;28;20038;-78
2023/11/01 09:41:07;;;;;;;3.15;0.70;;;;;;;;;;5028031;28;20099;-78
2023/11/01 09:43:34;;;;;;;3.58;0.50;;;;;;;;;;5029720;28;20402;-78
2023/11/01 09:46:00;;;;;;;2.65;0.70;;;;;;;;;;5028956;28;20030;-78
2023/11/01 09:48:26;;;;;;;1.20;0.50;;;;;;;;;;5029791;28;20029;-78
2023/11/01 09:50:52;;;;;;;1.25;0.40;;;;;;;;;;5026675;28;20030;-78
2023/11/01 09:53:17;;;;;;;3.65;0.65;;;;;;;;;;5031905;28;20037;-78
2023/11/01 09:55:43;;;;;;;1.30;0.47;;;;;;;;;;5030060;28;20051;-78
2023/11/01 09:58:08;;;;;;;1.67;0.50;;;;;;;;;;5030411;28;20029;-78
2023/11/01 10:00:34;;;;;;;2.17;0.70;;;;;;;;;;5027326;28;20100;-78
2023/11/01 10:02:59;;;;;;;0.85;0.25;;;;;;;;;;5030445;28;20025;-79
2023/11/01 10:05:25;;;;;;;1.90;0.40;;;;;;;;;;5028035;28;20124;-78
2023/11/01 10:07:50;;;;;;;1.67;0.52;;;;;;;;;;5032633;28;20405;-78
2023/11/01 10:10:16;;;;;;;1.75;0.43;;;;;;;;;;5030473;28;20076;-78
2023/11/01 10:12:42;;;;;;;1.83;0.25;;;;;;;;;;5025743;28;20045;-78
2023/11/01 10:15:16;;;;;;;1.80;0.40;;;;;;;;;;5028381;28;20393;-78
2023/11/01 10:17:41;;;;;;;2.97;0.40;;;;;;;;;;5024953;28;20026;-78
2023/11/01 10:20:19;;;;;;;1.65;0.60;;;;;;;;;;5029140;28;20033;-78
2023/11/01 10:22:44;;;;;;;4.25;0.57;;;;;;;;;;5030363;28;20040;-78
2023/11/01 10:25:10;;;;;;;2.65;0.73;;;;;;;;;;5030280;28;20218;-78
2023/11/01 10:27:39;;;;;;;3.13;0.60;;;;;;;;;;5028856;28;20702;-78
2023/11/01 10:30:05;;;;;;;1.85;0.57;;;;;;;;;;5028592;28;20443;-78
2023/11/01 10:32:30;;;;;;;3.00;0.70;;;;;;;;;;5025493;28;20038;-78
2023/11/01 10:35:09;;;;;;;1.90;0.52;;;;;;;;;;5031929;28;20064;-78
2023/11/01 10:37:34;;;;;;;1.73;0.60;;;;;;;;;;5028962;28;20386;-78
2023/11/01 10:40:00;;;;;;;0.70;0.17;;;;;;;;;;5029168;28;20029;-78
2023/11/01 10:42:26;;;;;;;2.20;0.82;;;;;;;;;;5025141;28;20045;-78
2023/11/01 10:44:52;;;;;;;2.15;0.52;;;;;;;;;;5025521;28;20033;-78
2023/11/01 10:47:18;;;;;;;2.63;0.40;;;;;;;;;;5015464;28;20033;-78
2023/11/01 10:49:44;;;;;;;2.22;0.38;;;;;;;;;;5030416;28;20117;-78
2023/11/01 10:52:10;;;;;;;2.58;0.40;;;;;;;;;;5029388;28;20493;-78
2023/11/01 10:54:35;;;;;;;1.67;0.60;;;;;;;;;;5026164;28;20021;-78
2023/11/01 10:57:01;;;;;;;2.03;0.85;;;;;;;;;;5030856;28;20029;-78
2023/11/01 10:59:44;;;;;;;2.78;0.40;;;;;;;;;;5021899;28;20030;-78
2023/11/01 11:02:12;;;;;;;0.90;0.60;;;;;;;;;;5030578;28;20038;-78
2023/11/01 11:04:45;;;;;;;1.55;0.40;;;;;;;;;;5027426;28;20445;-78
2023/11/01 11:07:20;;;;;;;2.20;0.77;;;;;;;;;;5030615;28;20117;-79
2023/11/01 11:09:45;;;;;;;2.13;0.43;;;;;;;;;;5027281;28;20033;-78
2023/11/01 11:12:14;;;;;;;1.58;0.30;;;;;;;;;;5025481;28;20071;-78
2023/11/01 11:14:47;;;;;;;2.85;0.55;;;;;;;;;;5036882;28;20036;-78
2023/11/01 11:17:13;;;;;;;1.27;0.47;;;;;;;;;;5031444;28;20052;-78
2023/11/01 11:19:57;;;;;;;1.33;0.47;;;;;;;;;;5025269;28;20029;-77
2023/11/01 11:22:22;;;;;;;3.55;0.63;;;;;;;;;;5026697;28;20038;-78
2023/11/01 11:24:48;;;;;;;2.60;0.60;;;;;;;;;;5029707;28;20032;-78
2023/11/01 11:27:32;;;;;;;1.98;0.47;;;;;;;;;;5022734;28;20034;-77
2023/11/01 11:29:57;;;;;;;1.60;0.40;;;;;;;;;;5029418;28;20033;-78
2023/11/01 11:32:23;;;;;;;1.95;0.60;;;;;;;;;;5028384;28;20116;-78
2023/11/01 11:34:50;;;;;;;2.15;0.40;;;;;;;;;;5024903;28;20051;-78
2023/11/01 11:37:16;;;;;;;1.30;0.40;;;;;;;;;;5028943;28;20033;-78
2023/11/01 11:40:14;;;;;;;1.40;0.30;;;;;;;;;;5024079;28;20262;-78
2023/11/01 11:42:45;;;;;;;2.88;0.68;;;;;;;;;;4989826;28;20108;-79
2023/11/01 11:45:22;;;;;;;2.28;0.68;;;;;;;;;;5031453;28;20140;-79
2023/11/01 11:47:48;;;;;;;2.65;0.65;;;;;;;;;;5028058;28;20033;-78
2023/11/01 11:50:13;;;;;;;2.80;0.55;;;;;;;;;;5026929;28;20091;-78
2023/11/01 11:52:43;;;;;;;1.20;0.30;;;;;;;;;;5024846;28;20108;-78
2023/11/01 11:55:08;;;;;;;2.10;0.68;;;;;;;;;;5027219;28;20038;-78
2023/11/01 11:57:34;;;;;;;2.08;0.47;;;;;;;;;;5026286;28;20026;-78
2023/11/01 12:00:10;;;;;;;2.15;0.52;;;;;;;;;;5027735;28;20489;-78
2023/11/01 12:02:35;;;;;;;4.13;0.50;;;;;;;;;;5027227;28;20116;-79
2023/11/01 12:05:01;;;;;;;1.23;0.30;;;;;;;;;;5025239;28;20041;-78
2023/11/01 12:07:26;;;;;;;2.15;0.55;;;;;;;;;;5019244;28;20026;-78
2023/11/01 12:09:52;;;;;;;2.33;0.60;;;;;;;;;;5028112;28;20117;-78
2023/11/01 12:12:17;;;;;;;1.63;0.60;;;;;;;;;;5030562;28;20600;-78
2023/11/01 12:14:43;;;;;;;1.50;0.32;;;;;;;;;;5026386;28;20037;-78
2023/11/01 12:17:08;;;;;;;2.20;0.68;;;;;;;;;;5028299;28;20044;-78
2023/11/01 12:19:42;;;;;;;1.30;0.30;;;;;;;;;;5030168;28;20057;-78
2023/11/01 12:22:08;;;;;;;3.08;0.95;;;;;;;;;;5023550;28;20112;-79
2023/11/01 12:24:36;;;;;;;2.33;0.50;;;;;;;;;;5026471;28;20117;-78
2023/11/01 12:27:01;;;;;;;1.27;0.40;;;;;;;;;;5027465;28;20032;-78
2023/11/01 12:29:30;;;;;;;4.60;0.70;;;;;;;;;;5028586;28;20405;-78
2023/11/01 12:32:03;;;;;;;1.65;0.30;;;;;;;;;;5025148;28;20040;-78
2023/11/01 12:34:28;;;;;;;1.52;0.50;;;;;;;;;;5010702;28;20030;-79
2023/11/01 12:37:13;;;;;;;3.70;0.47;;;;;;;;;;5023707;28;20116;-78
2023/11/01 12:39:42;;;;;;;1.45;0.45;;;;;;;;;;5023850;28;20033;-78
2023/11/01 12:42:39;;;;;;;3.67;0.90;;;;;;;;;;5028099;28;20033;-78
2023/11/01 12:45:05;;;;;;;2.17;0.60;;;;;;;;;;4988546;28;20030;-79
2023/11/01 12:47:43;;;;;;;2.97;0.95;;;;;;;;;;5026542;28;20402;-78
2023/11/01 12:50:09;;;;;;;4.10;0.90;;;;;;;;;;5038028;28;20045;-78
2023/11/01 12:52:34;;;;;;;3.70;0.55;;;;;;;;;;5023780;28;20044;-78
2023/11/01 12:55:00;;;;;;;3.75;0.77;;;;;;;;;;5029433;28;20171;-78
2023/11/01 12:57:25;;;;;;;3.90;0.88;;;;;;;;;;5026564;28;20116;-78
2023/11/01 12:59:50;;;;;;;2.78;0.68;;;;;;;;;;5026157;28;20108;-78
2023/11/01 13:02:16;;;;;;;2.58;0.90;;;;;;;;;;5024747;28;20116;-78
2023/11/01 13:04:42;;;;;;;1.67;0.50;;;;;;;;;;5026223;28;20145;-78
2023/11/01 13:07:07;;;;;;;2.47;0.68;;;;;;;;;;5026613;28;20068;-79
2023/11/01 13:09:33;;;;;;;3.75;0.63;;;;;;;;;;5028214;28;20045;-78
2023/11/01 13:11:58;;;;;;;3.28;0.65;;;;;;;;;;5028300;28;20032;-78
2023/11/01 13:14:23;;;;;;;5.18;0.80;;;;;;;;;;5025931;28;20041;-79
2023/11/01 13:16:49;;;;;;;2.80;0.60;;;;;;;;;;5024643;28;20044;-78
2023/11/01 13:19:14;;;;;;;2.50;0.70;;;;;;;;;;5021034;28;20264;-78
2023/11/01 13:21:39;;;;;;;5.35;0.75;;;;;;;;;;5028445;28;20518;-78
2023/11/01 13:24:05;;;;;;;2.10;0.65;;;;;;;;;;5025741;28;20029;-79
2023/11/01 13:26:31;;;;;;;1.95;0.57;;;;;;;;;;5025361;28;20090;-79
2023/11/01 13:28:56;;;;;;;2.97;0.80;;;;;;;;;;5081587;22;20120;-77
2023/11/01 13:31:21;;;;;;;2.08;0.50;;;;;;;;;;5023568;28;20160;-77
2023/11/01 13:33:47;;;;;;;2.92;0.55;;;;;;;;;;5014909;28;20187;-77
2023/11/01 13:36:13;;;;;;;4.13;0.85;;;;;;;;;;5037603;28;20486;-77
2023/11/01 13:38:38;;;;;;;4.00;1.08;;;;;;;;;;5019407;28;20044;-77
2023/11/01 13:41:03;;;;;;;3.67;1.23;;;;;;;;;;5002329;28;20030;-77
2023/11/01 13:43:28;;;;;;;2.97;0.60;;;;;;;;;;5005678;28;20019;-76
2023/11/01 13:45:54;;;;;;;3.17;1.42;;;;;;;;;;5003952;28;20057;-77
2023/11/01 13:48:19;;;;;;;5.88;1.63;;;;;;;;;;5014031;28;20048;-77
2023/11/01 13:50:45;;;;;;;6.22;2.90;;;;;;;;;;5016666;28;20042;-77
2023/11/01 13:53:10;;;;;;;5.35;1.85;;;;;;;;;;5009584;28;20661;-77
2023/11/01 13:55:38;;;;;;;5.03;1.42;;;;;;;;;;5011778;28;20388;-77
2023/11/01 13:58:03;;;;;;;7.30;1.20;;;;;;;;;;5006968;28;20045;-77
2023/11/01 14:00:28;;;;;;;2.88;0.63;;;;;;;;;;5003898;28;20031;-77
2023/11/01 14:02:54;;;;;;;2.45;0.80;;;;;;;;;;5021209;28;20048;-77
2023/11/01 14:05:19;;;;;;;4.32;0.80;;;;;;;;;;5017903;28;20034;-77
2023/11/01 14:07:44;;;;;;;2.30;0.50;;;;;;;;;;5016723;28;20033;-77
2023/11/01 14:10:09;;;;;;;4.75;0.90;;;;;;;;;;5012146;28;20371;-77
2023/11/01 14:12:36;;;;;;;2.83;0.70;;;;;;;;;;5005969;28;20042;-77
2023/11/01 14:15:01;;;;;;;3.55;0.90;;;;;;;;;;5011738;28;20048;-76
2023/11/01 14:17:26;;;;;;;3.92;0.75;;;;;;;;;;5019694;28;20022;-77
2023/11/01 14:19:51;;;;;;;5.25;1.00;;;;;;;;;;5018750;28;20021;-78
2023/11/01 14:22:17;;;;;;;3.75;0.90;;;;;;;;;;5012088;28;20038;-77
2023/11/01 14:24:45;;;;;;;3.70;0.70;;;;;;;;;;5013148;28;20032;-77
2023/11/01 14:27:11;;;;;;;6.03;0.90;;;;;;;;;;5007237;28;20398;-77
2023/11/01 14:29:36;;;;;;;3.22;1.17;;;;;;;;;;5000207;28;20180;-77
2023/11/01 14:32:03;;;;;;;3.58;0.90;;;;;;;;;;5019175;28;20505;-77
2023/11/01 14:34:28;;;;;;;3.78;0.70;;;;;;;;;;5016681;28;20111;-77
2023/11/01 14:36:54;;;;;;;6.50;1.00;;;;;;;;;;5001071;28;20064;-77